Time;durP1;ratioP1;P1;durP2;ratioP2;P2;SDS_P1;SDS_P2;PMS_P1;PMS_P2;Temp;Humidity;BMP_temperature;BMP_pressure;BME280_temperature;BME280_humidity;BME280_pressure;Samples;Min_cycle;Max_cycle;Signal;HPM_P1;HPM_P2
2022/11/17 00:01:16;;;;;;;3.63;1.85;;;16.00;99.90;;;;;;5008792;28;25089;-79
2022/11/17 00:03:42;;;;;;;6.13;2.08;;;16.10;99.90;;;;;;4995363;28;25049;-77
2022/11/17 00:06:07;;;;;;;11.40;2.00;;;16.20;99.90;;;;;;4993967;28;25063;-79
2022/11/17 00:08:33;;;;;;;5.80;1.92;;;16.10;99.90;;;;;;5000896;28;25126;-77
2022/11/17 00:11:00;;;;;;;4.78;2.15;;;16.20;99.90;;;;;;4988834;28;25105;-79
2022/11/17 00:16:15;;;;;;;3.25;1.85;;;16.40;99.90;;;;;;4989115;28;25068;-77
2022/11/17 00:21:27;;;;;;;6.03;2.03;;;16.50;99.90;;;;;;4978253;28;25055;-77
2022/11/17 00:23:54;;;;;;;6.35;2.10;;;16.50;99.90;;;;;;4996941;28;25057;-76
2022/11/17 00:26:25;;;;;;;5.72;2.80;;;16.50;99.90;;;;;;4982448;28;25124;-76
2022/11/17 00:28:53;;;;;;;3.80;2.03;;;16.60;99.90;;;;;;4988393;28;25059;-78
2022/11/17 00:34:04;;;;;;;5.40;1.60;;;16.70;99.90;;;;;;4980310;28;25066;-78
2022/11/17 00:36:41;;;;;;;3.80;1.77;;;16.80;99.90;;;;;;4982579;28;25053;-79
2022/11/17 00:39:08;;;;;;;5.25;1.55;;;16.90;99.90;;;;;;4992720;28;25063;-78
2022/11/17 00:41:34;;;;;;;3.28;1.50;;;16.90;99.90;;;;;;5000876;28;25083;-78
2022/11/17 00:44:00;;;;;;;5.65;1.95;;;17.00;99.90;;;;;;4991194;28;25114;-80
2022/11/17 00:46:25;;;;;;;6.35;1.70;;;17.00;99.90;;;;;;4991758;28;25093;-77
2022/11/17 00:48:51;;;;;;;5.35;1.90;;;17.00;99.90;;;;;;4994770;28;25085;-79
2022/11/17 00:51:17;;;;;;;7.97;1.90;;;17.00;99.90;;;;;;4990024;28;25101;-78
2022/11/17 00:53:42;;;;;;;4.13;1.73;;;17.10;99.90;;;;;;4989885;28;25069;-78
2022/11/17 00:56:08;;;;;;;5.15;2.00;;;17.10;99.90;;;;;;4995229;28;25092;-78
2022/11/17 00:58:35;;;;;;;4.93;2.13;;;17.30;99.90;;;;;;4989663;28;25096;-76
2022/11/17 01:01:01;;;;;;;4.38;1.80;;;17.20;99.90;;;;;;5008114;28;25137;-77
2022/11/17 01:03:26;;;;;;;7.38;2.15;;;17.20;99.90;;;;;;4995723;28;25085;-76
2022/11/17 01:05:52;;;;;;;4.63;1.88;;;17.20;99.90;;;;;;5001004;28;25160;-77
2022/11/17 01:08:17;;;;;;;3.08;2.05;;;17.40;99.90;;;;;;4990640;28;25065;-76
2022/11/17 01:10:43;;;;;;;4.57;1.88;;;17.40;99.90;;;;;;4995365;28;25141;-74
2022/11/17 01:13:08;;;;;;;2.25;1.85;;;17.50;99.90;;;;;;4989317;28;25072;-77
2022/11/17 01:15:34;;;;;;;2.40;1.92;;;17.50;99.90;;;;;;4990718;28;25066;-77
2022/11/17 01:18:00;;;;;;;3.80;1.88;;;17.40;99.90;;;;;;4986455;28;25071;-75
2022/11/17 01:20:25;;;;;;;3.95;2.10;;;17.60;99.90;;;;;;4987545;28;25144;-75
2022/11/17 01:22:53;;;;;;;5.63;1.92;;;17.60;99.90;;;;;;5002703;28;25098;-78
2022/11/17 01:25:19;;;;;;;4.72;2.30;;;17.60;99.90;;;;;;5009353;28;25080;-75
2022/11/17 01:27:45;;;;;;;7.43;2.80;;;17.50;99.90;;;;;;4989813;28;25103;-78
2022/11/17 01:30:11;;;;;;;4.72;2.17;;;17.60;99.90;;;;;;4988095;28;25107;-77
2022/11/17 01:32:37;;;;;;;5.82;2.13;;;17.60;99.90;;;;;;4988015;28;25067;-74
2022/11/17 01:35:02;;;;;;;2.85;1.75;;;17.60;99.90;;;;;;4987730;28;25068;-76
2022/11/17 01:37:28;;;;;;;6.40;1.98;;;17.70;99.90;;;;;;4986776;28;25075;-77
2022/11/17 01:39:53;;;;;;;5.38;2.33;;;17.80;99.90;;;;;;4988786;28;25098;-75
2022/11/17 01:42:25;;;;;;;6.45;1.98;;;17.70;99.90;;;;;;4987073;28;25145;-77
2022/11/17 01:44:54;;;;;;;8.80;2.45;;;17.80;99.90;;;;;;4989367;28;25067;-76
2022/11/17 01:47:40;;;;;;;3.22;2.05;;;17.80;99.90;;;;;;4984497;28;25104;-77
2022/11/17 01:50:15;;;;;;;4.88;1.70;;;17.90;99.90;;;;;;4991471;28;25062;-76
2022/11/17 01:52:41;;;;;;;3.97;1.88;;;17.90;99.90;;;;;;4998907;28;25094;-78
2022/11/17 01:55:08;;;;;;;4.00;2.00;;;18.00;99.90;;;;;;5003374;28;25101;-78
2022/11/17 01:57:53;;;;;;;2.88;1.90;;;18.10;99.90;;;;;;5027388;28;25078;-75
2022/11/17 02:00:19;;;;;;;3.88;1.70;;;18.10;99.90;;;;;;5000404;28;25072;-78
2022/11/17 02:02:46;;;;;;;4.30;1.48;;;18.20;99.90;;;;;;4992454;28;25065;-78
2022/11/17 02:05:27;;;;;;;8.55;2.40;;;18.10;99.90;;;;;;5011425;28;25056;-78
2022/11/17 02:07:56;;;;;;;4.80;1.48;;;18.00;99.90;;;;;;4996846;28;25060;-78
2022/11/17 02:10:21;;;;;;;4.93;1.40;;;18.10;99.90;;;;;;5000893;28;25088;-76
2022/11/17 02:12:47;;;;;;;2.10;1.42;;;18.20;99.90;;;;;;4999210;28;25076;-79
2022/11/17 02:15:13;;;;;;;1.50;1.38;;;18.10;99.90;;;;;;4993005;28;25055;-79
2022/11/17 02:17:42;;;;;;;7.10;1.77;;;18.30;99.90;;;;;;4997707;28;25069;-78
2022/11/17 02:20:14;;;;;;;6.47;1.65;;;18.20;99.90;;;;;;4988891;28;25088;-77
2022/11/17 02:23:07;;;;;;;6.80;1.70;;;18.20;99.90;;;;;;4996013;28;25047;-78
2022/11/17 02:25:57;;;;;;;2.88;1.55;;;18.30;99.90;;;;;;4991422;28;25103;-80
2022/11/17 02:28:31;;;;;;;6.38;1.60;;;18.30;99.90;;;;;;4993073;28;25081;-78
2022/11/17 02:31:12;;;;;;;2.97;1.23;;;18.30;99.90;;;;;;4993035;28;25097;-78
2022/11/17 02:34:14;;;;;;;2.65;1.50;;;18.20;99.90;;;;;;4990161;28;25117;-76
2022/11/17 02:36:58;;;;;;;6.78;1.58;;;18.20;99.90;;;;;;4986895;28;25111;-76
2022/11/17 02:40:02;;;;;;;6.30;1.65;;;18.20;99.90;;;;;;4990870;28;25117;-76
2022/11/17 02:45:26;;;;;;;2.33;1.17;;;18.10;99.90;;;;;;4987935;28;25147;-77
2022/11/17 02:47:56;;;;;;;3.92;1.17;;;18.00;99.90;;;;;;4992821;28;25073;-77
2022/11/17 02:50:25;;;;;;;9.52;1.55;;;18.00;99.90;;;;;;4994840;28;25145;-76
2022/11/17 02:52:50;;;;;;;5.32;1.45;;;18.10;99.90;;;;;;4993723;28;25096;-77
2022/11/17 02:55:16;;;;;;;4.45;1.27;;;18.10;99.90;;;;;;4990091;28;25086;-78
2022/11/17 02:57:42;;;;;;;6.57;2.10;;;18.20;99.90;;;;;;4992516;28;25087;-76
2022/11/17 03:00:15;;;;;;;5.45;1.20;;;18.10;99.90;;;;;;4991827;28;25140;-78
2022/11/17 03:03:06;;;;;;;5.55;1.50;;;18.00;99.90;;;;;;4984979;28;25115;-76
2022/11/17 03:05:53;;;;;;;6.53;1.02;;;18.20;99.90;;;;;;5000787;28;25134;-78
2022/11/17 03:08:34;;;;;;;3.05;1.15;;;18.20;99.90;;;;;;4989704;28;25105;-77
2022/11/17 03:11:07;;;;;;;2.90;0.93;;;18.00;99.90;;;;;;4989747;28;25055;-76
2022/11/17 03:13:46;;;;;;;4.50;0.70;;;18.10;99.90;;;;;;4986759;28;25101;-77
2022/11/17 03:16:35;;;;;;;3.08;0.90;;;17.90;99.90;;;;;;4985303;28;25080;-78
2022/11/17 03:19:10;;;;;;;4.38;1.00;;;17.90;99.90;;;;;;4991466;28;25087;-79
2022/11/17 03:21:38;;;;;;;2.17;1.05;;;17.90;99.90;;;;;;4983953;28;25139;-76
2022/11/17 03:24:16;;;;;;;2.63;0.80;;;18.10;99.90;;;;;;4993100;28;25101;-76
2022/11/17 03:26:49;;;;;;;2.00;0.75;;;18.10;99.90;;;;;;4989570;28;25147;-76
2022/11/17 03:29:18;;;;;;;2.92;0.75;;;18.00;99.90;;;;;;4989522;28;25070;-77
2022/11/17 03:31:46;;;;;;;3.85;1.30;;;17.80;99.90;;;;;;4984377;28;25104;-76
2022/11/17 03:34:16;;;;;;;3.95;0.93;;;17.80;99.90;;;;;;4984891;28;25062;-75
2022/11/17 03:36:47;;;;;;;8.73;0.98;;;17.90;99.90;;;;;;5000902;28;25155;-77
2022/11/17 03:39:22;;;;;;;3.42;1.00;;;17.90;99.90;;;;;;4981727;28;25100;-76
2022/11/17 03:41:52;;;;;;;1.55;0.57;;;17.90;99.90;;;;;;4992011;28;25085;-77
2022/11/17 03:44:22;;;;;;;3.63;0.80;;;18.00;99.90;;;;;;4979997;28;25127;-78
2022/11/17 03:46:51;;;;;;;5.93;1.27;;;17.80;99.90;;;;;;4976908;28;25130;-77
2022/11/17 03:49:31;;;;;;;4.05;0.90;;;17.80;99.90;;;;;;5000215;28;25097;-77
2022/11/17 03:51:57;;;;;;;2.45;0.80;;;17.90;99.90;;;;;;4983871;28;25055;-77
2022/11/17 03:54:23;;;;;;;4.13;2.13;;;17.70;99.90;;;;;;4985354;28;25111;-77
2022/11/17 03:57:05;;;;;;;4.68;1.02;;;17.70;99.90;;;;;;4994487;28;25146;-77
2022/11/17 03:59:45;;;;;;;4.78;0.93;;;17.60;99.90;;;;;;4994518;28;25075;-77
2022/11/17 04:02:18;;;;;;;0.40;0.40;;;17.70;99.90;;;;;;4996279;28;25050;-77
2022/11/17 04:05:27;;;;;;;1.60;0.75;;;17.60;99.90;;;;;;4985928;28;25061;-77
2022/11/17 04:07:39;;;;;;;3.08;1.02;;;17.60;99.90;;;;;;4977829;28;25073;-77
2022/11/17 04:10:06;;;;;;;2.00;0.80;;;17.70;99.90;;;;;;4984397;28;25099;-77
2022/11/17 04:18:00;;;;;;;2.28;0.80;;;17.60;99.90;;;;;;4983886;28;25134;-78
2022/11/17 04:20:25;;;;;;;1.63;1.25;;;17.70;99.90;;;;;;4993047;28;25166;-78
2022/11/17 04:23:06;;;;;;;4.53;0.95;;;17.70;99.90;;;;;;4985438;28;25124;-78
2022/11/17 04:28:36;;;;;;;5.55;1.63;;;17.60;99.90;;;;;;4989146;28;25128;-77
2022/11/17 04:31:16;;;;;;;7.28;1.50;;;17.80;99.90;;;;;;4990856;28;25157;-78
2022/11/17 04:33:47;;;;;;;3.70;0.93;;;17.80;99.90;;;;;;4986181;28;25056;-78
2022/11/17 04:36:15;;;;;;;2.38;0.77;;;17.70;99.90;;;;;;4986554;28;25063;-78
2022/11/17 04:38:47;;;;;;;4.45;0.88;;;17.90;99.90;;;;;;4996668;28;25079;-76
2022/11/17 04:44:00;;;;;;;1.80;0.80;;;17.90;99.90;;;;;;4978549;28;25061;-78
2022/11/17 04:46:28;;;;;;;4.65;1.23;;;17.90;99.90;;;;;;4984961;28;25171;-79
2022/11/17 04:48:54;;;;;;;3.20;0.82;;;18.10;99.90;;;;;;4994521;28;25119;-77
2022/11/17 04:51:21;;;;;;;5.10;1.10;;;18.10;99.90;;;;;;4983374;28;25103;-78
2022/11/17 04:53:47;;;;;;;2.63;0.77;;;18.10;99.90;;;;;;4994921;28;25113;-77
2022/11/17 04:56:12;;;;;;;2.10;0.90;;;18.10;99.90;;;;;;5000644;28;25122;-78
2022/11/17 04:58:39;;;;;;;6.22;0.70;;;18.00;99.90;;;;;;4984775;28;25147;-79
2022/11/17 05:01:15;;;;;;;4.32;1.02;;;18.20;99.90;;;;;;4984905;28;25078;-77
2022/11/17 05:03:52;;;;;;;4.07;1.25;;;18.40;99.90;;;;;;5009895;28;25081;-77
2022/11/17 05:06:25;;;;;;;5.38;1.02;;;18.30;99.90;;;;;;4993752;28;25109;-76
2022/11/17 05:08:55;;;;;;;1.67;1.15;;;18.50;99.90;;;;;;4984932;28;25079;-77
2022/11/17 05:14:07;;;;;;;5.00;0.93;;;18.70;99.90;;;;;;4974541;28;25079;-76
2022/11/17 05:19:20;;;;;;;3.97;0.95;;;18.60;99.90;;;;;;4996242;28;25060;-78
2022/11/17 05:21:46;;;;;;;1.20;0.80;;;18.60;99.90;;;;;;4973348;28;25170;-79
2022/11/17 05:24:13;;;;;;;1.65;0.98;;;18.80;99.90;;;;;;5002018;28;25092;-77
2022/11/17 05:26:39;;;;;;;2.78;1.33;;;18.90;99.90;;;;;;5009842;28;25080;-78
2022/11/17 05:29:06;;;;;;;3.97;1.00;;;18.90;99.90;;;;;;5039206;28;25101;-77
2022/11/17 05:31:33;;;;;;;6.55;1.00;;;19.00;99.90;;;;;;5009389;28;25075;-78
2022/11/17 05:33:59;;;;;;;6.05;1.20;;;18.80;99.90;;;;;;5005897;28;25081;-77
2022/11/17 05:36:25;;;;;;;6.03;1.42;;;19.00;99.90;;;;;;4992731;28;25147;-76
2022/11/17 05:38:51;;;;;;;3.85;0.88;;;19.10;99.90;;;;;;5000110;28;25079;-77
2022/11/17 05:41:18;;;;;;;4.10;1.05;;;18.90;99.90;;;;;;4995677;28;25079;-77
2022/11/17 05:43:44;;;;;;;3.40;1.60;;;19.10;99.90;;;;;;4989502;28;25081;-77
2022/11/17 05:46:11;;;;;;;4.28;1.17;;;19.10;99.90;;;;;;4997618;28;25081;-77
2022/11/17 05:48:38;;;;;;;10.32;1.50;;;19.00;99.90;;;;;;4998541;28;25070;-77
2022/11/17 05:51:04;;;;;;;4.55;1.17;;;19.10;99.90;;;;;;4992153;28;25108;-77
2022/11/17 05:53:31;;;;;;;5.40;1.65;;;18.90;99.90;;;;;;4988926;28;25135;-75
2022/11/17 05:56:09;;;;;;;4.97;1.35;;;19.00;99.90;;;;;;4988165;28;25075;-76
2022/11/17 05:58:38;;;;;;;6.15;1.52;;;19.00;99.90;;;;;;4994292;28;25063;-76
2022/11/17 06:01:06;;;;;;;4.40;1.38;;;18.90;99.90;;;;;;4992482;28;25120;-77
2022/11/17 06:03:38;;;;;;;7.60;1.70;;;19.00;99.90;;;;;;4989602;28;25058;-77
2022/11/17 06:06:04;;;;;;;6.80;1.33;;;18.90;99.90;;;;;;5000072;28;25132;-77
2022/11/17 06:08:30;;;;;;;4.35;1.92;;;18.70;99.90;;;;;;4997125;28;25073;-77
2022/11/17 06:10:55;;;;;;;6.13;1.35;;;18.50;99.90;;;;;;4995261;28;25060;-78
2022/11/17 06:13:27;;;;;;;7.00;1.52;;;18.70;99.90;;;;;;4996348;28;25193;-76
2022/11/17 06:15:54;;;;;;;2.67;1.00;;;18.50;99.90;;;;;;5013900;28;25072;-76
2022/11/17 06:18:24;;;;;;;10.20;1.27;;;18.40;99.90;;;;;;5004645;28;25164;-76
2022/11/17 06:20:52;;;;;;;4.57;0.98;;;18.20;99.90;;;;;;4995000;28;25147;-77
2022/11/17 06:23:20;;;;;;;7.05;1.40;;;18.20;99.90;;;;;;5010728;28;25159;-76
2022/11/17 06:25:47;;;;;;;4.60;1.10;;;18.20;99.90;;;;;;4998667;28;25061;-77
2022/11/17 06:28:16;;;;;;;4.55;1.13;;;18.00;99.90;;;;;;4995496;28;25067;-78
2022/11/17 06:30:43;;;;;;;6.55;1.10;;;17.90;99.90;;;;;;4989651;28;25058;-76
2022/11/17 06:33:11;;;;;;;4.47;1.17;;;17.70;99.90;;;;;;4984813;28;25065;-76
2022/11/17 06:35:38;;;;;;;9.63;1.38;;;17.80;99.90;;;;;;4979908;28;25061;-77
2022/11/17 06:38:04;;;;;;;6.13;1.08;;;17.40;99.90;;;;;;4998381;28;25053;-77
2022/11/17 06:40:30;;;;;;;4.25;1.17;;;17.40;99.90;;;;;;4989602;28;25140;-76
2022/11/17 06:43:08;;;;;;;4.47;1.17;;;17.50;99.90;;;;;;4998568;28;25058;-78
2022/11/17 06:45:42;;;;;;;6.63;0.90;;;17.50;99.90;;;;;;4995452;28;25071;-75
2022/11/17 06:48:09;;;;;;;3.65;0.85;;;17.30;99.90;;;;;;4987889;28;25055;-76
2022/11/17 06:50:35;;;;;;;3.03;1.00;;;17.10;99.90;;;;;;4986125;28;25145;-77
2022/11/17 06:53:03;;;;;;;8.57;0.90;;;17.00;99.90;;;;;;4988215;28;25083;-78
2022/11/17 06:55:29;;;;;;;3.45;0.75;;;17.20;99.90;;;;;;4988000;28;25073;-78
2022/11/17 06:58:03;;;;;;;4.13;0.90;;;17.00;99.90;;;;;;4999155;28;25113;-79
2022/11/17 07:00:29;;;;;;;2.80;0.77;;;16.90;99.90;;;;;;4988290;28;25059;-77
2022/11/17 07:02:59;;;;;;;1.50;0.60;;;16.90;99.90;;;;;;4986783;28;25114;-78
2022/11/17 07:05:26;;;;;;;1.85;0.90;;;16.80;99.90;;;;;;5006622;28;25035;-76
2022/11/17 07:07:55;;;;;;;2.65;0.60;;;16.90;99.90;;;;;;4985322;28;25066;-76
2022/11/17 07:10:20;;;;;;;1.67;0.80;;;16.70;99.90;;;;;;5002540;28;25069;-77
2022/11/17 07:12:46;;;;;;;2.97;0.80;;;16.80;99.90;;;;;;4994783;28;25109;-77
2022/11/17 07:15:11;;;;;;;3.67;0.90;;;16.60;99.90;;;;;;4991777;28;25057;-77
2022/11/17 07:17:37;;;;;;;1.60;0.82;;;16.70;99.90;;;;;;4993978;28;25134;-77
2022/11/17 07:20:03;;;;;;;5.13;0.60;;;16.70;99.90;;;;;;4992135;28;25152;-77
2022/11/17 07:22:29;;;;;;;2.45;0.80;;;16.70;99.90;;;;;;4988311;28;25145;-77
2022/11/17 07:24:54;;;;;;;5.00;0.88;;;16.60;99.90;;;;;;4993837;28;25104;-77
2022/11/17 07:27:20;;;;;;;1.95;0.90;;;16.60;99.90;;;;;;4991956;28;25100;-77
2022/11/17 07:29:45;;;;;;;5.13;0.68;;;16.80;99.90;;;;;;4991587;28;25085;-76
2022/11/17 07:32:13;;;;;;;2.83;0.70;;;16.70;99.90;;;;;;4988235;28;25063;-77
2022/11/17 07:34:39;;;;;;;1.58;0.85;;;16.80;99.90;;;;;;5001450;28;25070;-77
2022/11/17 07:37:06;;;;;;;3.03;1.08;;;16.70;99.90;;;;;;4986486;28;25066;-77
2022/11/17 07:39:32;;;;;;;2.47;1.02;;;16.90;99.90;;;;;;4990344;28;25130;-77
2022/11/17 07:41:57;;;;;;;3.30;1.25;;;16.70;99.90;;;;;;4999285;28;25075;-77
2022/11/17 07:44:23;;;;;;;1.75;0.90;;;16.80;99.90;;;;;;4986377;28;25061;-78
2022/11/17 07:46:48;;;;;;;2.63;1.08;;;16.70;99.90;;;;;;4986458;28;25058;-77
2022/11/17 07:49:14;;;;;;;1.45;1.10;;;16.70;99.90;;;;;;4988247;28;25092;-76
2022/11/17 07:51:40;;;;;;;6.55;1.10;;;16.80;99.90;;;;;;4987019;28;25146;-76
2022/11/17 07:54:05;;;;;;;3.30;1.30;;;16.80;99.90;;;;;;4992061;28;25060;-77
2022/11/17 07:56:31;;;;;;;7.43;1.40;;;16.80;99.90;;;;;;4983114;28;25076;-76
2022/11/17 07:58:57;;;;;;;3.13;1.00;;;16.60;99.90;;;;;;4977382;28;25113;-75
2022/11/17 08:01:26;;;;;;;2.42;0.90;;;16.80;99.90;;;;;;5001812;28;25051;-79
2022/11/17 08:03:52;;;;;;;4.75;1.00;;;16.70;99.90;;;;;;4997451;28;25069;-77
2022/11/17 08:06:18;;;;;;;7.63;1.30;;;16.70;99.90;;;;;;4988398;28;25072;-77
2022/11/17 08:08:44;;;;;;;3.28;1.25;;;16.80;99.90;;;;;;4997465;28;25061;-77
2022/11/17 08:11:11;;;;;;;5.32;1.70;;;16.80;99.90;;;;;;4997344;28;25106;-76
2022/11/17 08:13:39;;;;;;;5.97;1.33;;;16.80;99.90;;;;;;4991034;28;25102;-78
2022/11/17 08:16:06;;;;;;;5.65;0.80;;;16.70;99.90;;;;;;4992762;28;25131;-77
2022/11/17 08:18:31;;;;;;;13.98;2.60;;;16.70;99.90;;;;;;4998350;28;25107;-78
2022/11/17 08:21:12;;;;;;;6.63;2.17;;;16.80;99.90;;;;;;4989553;28;25101;-77
2022/11/17 08:23:39;;;;;;;4.35;1.52;;;16.80;99.90;;;;;;4994509;28;25125;-77
2022/11/17 08:26:07;;;;;;;3.25;1.00;;;16.70;99.90;;;;;;4994516;28;25079;-75
2022/11/17 08:28:33;;;;;;;2.55;1.25;;;16.60;99.90;;;;;;4996959;28;25114;-74
2022/11/17 08:31:03;;;;;;;5.47;1.10;;;16.60;99.90;;;;;;5000515;28;25114;-78
2022/11/17 08:33:29;;;;;;;4.78;1.83;;;16.70;99.90;;;;;;4987625;28;25068;-77
2022/11/17 08:35:59;;;;;;;1.73;1.00;;;16.70;99.90;;;;;;4988716;28;25102;-77
2022/11/17 08:38:27;;;;;;;1.38;0.93;;;16.60;99.90;;;;;;4994232;28;25076;-76
2022/11/17 08:40:57;;;;;;;1.50;1.02;;;16.40;99.90;;;;;;5001375;28;25077;-76
2022/11/17 08:43:24;;;;;;;2.65;0.85;;;16.50;99.90;;;;;;4996130;28;25054;-76
2022/11/17 08:45:50;;;;;;;2.22;1.20;;;16.30;99.90;;;;;;4986334;28;25078;-77
2022/11/17 08:48:15;;;;;;;2.70;0.88;;;16.30;99.90;;;;;;5001863;28;25123;-77
2022/11/17 08:50:41;;;;;;;2.65;0.93;;;16.20;99.90;;;;;;4988504;28;25071;-77
2022/11/17 08:53:16;;;;;;;4.85;1.55;;;16.30;99.90;;;;;;5008536;28;25099;-77
2022/11/17 08:55:42;;;;;;;2.35;1.10;;;16.30;99.90;;;;;;5016128;28;25129;-76
2022/11/17 08:58:08;;;;;;;5.65;1.50;;;16.20;99.90;;;;;;4996277;28;25134;-77
2022/11/17 09:00:35;;;;;;;3.97;0.93;;;16.20;99.90;;;;;;5000879;28;25064;-77
2022/11/17 09:03:04;;;;;;;5.78;1.27;;;16.30;99.90;;;;;;5003565;28;25103;-77
2022/11/17 09:05:30;;;;;;;2.70;1.55;;;16.30;99.90;;;;;;4990075;28;25103;-78
2022/11/17 09:07:55;;;;;;;5.88;1.25;;;16.30;99.90;;;;;;4988593;28;25099;-77
2022/11/17 09:10:21;;;;;;;4.07;1.40;;;16.30;99.90;;;;;;5001008;28;25117;-77
2022/11/17 09:12:46;;;;;;;5.10;1.50;;;16.20;99.90;;;;;;4989465;28;25070;-76
2022/11/17 09:15:12;;;;;;;7.45;1.30;;;16.30;99.90;;;;;;4988287;28;25124;-76
2022/11/17 09:17:39;;;;;;;7.43;1.33;;;16.20;99.90;;;;;;5005214;28;25059;-77
2022/11/17 09:20:05;;;;;;;6.47;1.20;;;16.30;99.90;;;;;;4992033;28;25070;-78
2022/11/17 09:22:30;;;;;;;5.65;1.33;;;16.40;99.90;;;;;;4998631;28;25068;-77
2022/11/17 09:24:56;;;;;;;6.03;0.90;;;16.30;99.90;;;;;;5003438;28;25065;-76
2022/11/17 09:27:21;;;;;;;2.35;1.08;;;16.30;99.90;;;;;;4998782;28;25094;-76
2022/11/17 09:29:47;;;;;;;3.33;1.30;;;16.40;99.90;;;;;;4999266;28;25068;-76
2022/11/17 09:32:15;;;;;;;4.38;1.75;;;16.30;99.90;;;;;;5011682;28;25050;-77
2022/11/17 09:34:41;;;;;;;2.85;1.42;;;16.50;99.90;;;;;;5009841;28;25053;-75
2022/11/17 09:37:06;;;;;;;4.72;1.42;;;16.30;99.90;;;;;;5001072;28;25076;-76
2022/11/17 09:39:32;;;;;;;4.75;1.67;;;16.40;99.90;;;;;;4993318;28;25082;-78
2022/11/17 09:41:58;;;;;;;5.63;1.73;;;16.20;99.90;;;;;;5000236;28;25069;-77
2022/11/17 09:45:23;;;;;;;2.75;1.58;;;16.30;99.90;;;;;;4997386;28;25096;-76
2022/11/17 09:47:54;;;;;;;8.50;1.83;;;16.40;99.90;;;;;;4972542;28;25063;-76
2022/11/17 09:50:26;;;;;;;3.55;1.45;;;16.30;99.90;;;;;;4970764;28;25072;-77
2022/11/17 09:53:13;;;;;;;3.28;1.48;;;16.30;99.90;;;;;;4976981;28;25107;-77
2022/11/17 09:55:42;;;;;;;4.30;1.50;;;16.30;99.90;;;;;;4988204;28;25132;-79
2022/11/17 09:58:31;;;;;;;4.05;1.52;;;16.20;99.90;;;;;;4991906;28;25065;-77
2022/11/17 10:00:57;;;;;;;10.55;2.05;;;16.10;99.90;;;;;;4997800;28;25064;-77
2022/11/17 10:03:46;;;;;;;7.05;1.70;;;16.20;99.90;;;;;;5005617;28;24846;-76
2022/11/17 10:06:16;;;;;;;13.05;1.77;;;16.10;99.90;;;;;;5008085;28;25078;-76
2022/11/17 10:08:48;;;;;;;8.82;1.90;;;16.20;99.90;;;;;;4999570;28;25082;-76
2022/11/17 10:11:36;;;;;;;;;;;16.20;99.90;;;;;;5006856;28;25140;-77
2022/11/17 10:14:06;;;;;;;3.60;2.00;;;16.20;99.90;;;;;;5002522;28;25075;-76
2022/11/17 10:16:33;;;;;;;9.13;1.87;;;16.20;99.90;;;;;;4988128;28;25076;-74
2022/11/17 10:19:14;;;;;;;6.00;1.58;;;16.30;99.90;;;;;;4996586;28;25099;-76
2022/11/17 10:21:40;;;;;;;5.30;1.48;;;16.20;99.90;;;;;;4990734;28;25085;-76
2022/11/17 10:24:06;;;;;;;10.20;2.47;;;16.20;99.90;;;;;;5002020;28;25137;-77
2022/11/17 10:26:44;;;;;;;5.88;1.55;;;16.10;99.90;;;;;;4989215;28;25079;-76
2022/11/17 10:29:13;;;;;;;8.38;1.67;;;16.00;99.90;;;;;;4989710;28;25082;-78
2022/11/17 10:31:41;;;;;;;6.15;1.80;;;15.90;99.90;;;;;;5009161;28;25061;-77
2022/11/17 10:34:10;;;;;;;4.15;1.63;;;15.70;99.90;;;;;;5006101;28;25111;-77
2022/11/17 10:36:35;;;;;;;7.97;1.40;;;15.80;99.90;;;;;;4995564;28;25128;-76
2022/11/17 10:39:01;;;;;;;1.75;1.13;;;15.70;99.90;;;;;;4998015;28;25063;-75
2022/11/17 10:41:40;;;;;;;3.97;1.55;;;15.50;99.90;;;;;;5001313;28;25070;-78
2022/11/17 10:44:26;;;;;;;2.55;1.02;;;15.40;99.90;;;;;;4998279;28;25075;-77
2022/11/17 10:46:57;;;;;;;9.20;1.15;;;15.20;99.90;;;;;;4993309;28;25067;-75
2022/11/17 10:49:25;;;;;;;7.50;1.13;;;15.00;99.90;;;;;;4997401;28;25094;-76
2022/11/17 10:52:10;;;;;;;2.17;0.95;;;14.90;99.90;;;;;;4997544;28;25113;-77
2022/11/17 10:54:36;;;;;;;2.95;0.98;;;14.90;99.90;;;;;;5006627;28;25108;-78
2022/11/17 10:57:16;;;;;;;5.30;1.20;;;14.80;99.90;;;;;;5002680;28;25078;-77
2022/11/17 10:59:49;;;;;;;2.05;0.88;;;14.80;99.90;;;;;;5007052;28;25084;-75
2022/11/17 11:02:30;;;;;;;4.07;1.02;;;14.60;99.90;;;;;;5000357;28;25088;-76
2022/11/17 11:05:05;;;;;;;2.38;0.77;;;14.50;99.90;;;;;;5006388;28;25113;-74
2022/11/17 11:07:30;;;;;;;7.40;1.60;;;14.40;99.90;;;;;;4999453;28;25136;-76
2022/11/17 11:10:02;;;;;;;5.13;1.17;;;14.20;99.90;;;;;;5003012;28;25045;-76
2022/11/17 11:12:43;;;;;;;3.80;1.10;;;14.10;99.90;;;;;;4993320;28;25113;-78
2022/11/17 11:15:21;;;;;;;3.67;0.82;;;14.10;99.90;;;;;;5000247;28;25110;-76
2022/11/17 11:17:47;;;;;;;6.50;1.17;;;14.00;99.90;;;;;;4989630;28;25110;-77
2022/11/17 11:20:15;;;;;;;6.70;1.38;;;13.80;99.90;;;;;;5002986;28;25046;-78
2022/11/17 11:23:11;;;;;;;2.17;1.08;;;13.80;99.90;;;;;;5000518;28;25066;-76
2022/11/17 11:25:50;;;;;;;4.25;1.20;;;13.70;99.90;;;;;;4986293;28;25054;-78
2022/11/17 11:28:37;;;;;;;2.85;1.02;;;13.60;99.90;;;;;;4993528;28;25100;-76
2022/11/17 11:31:28;;;;;;;5.82;1.27;;;13.50;99.90;;;;;;4977819;28;25115;-76
2022/11/17 11:34:15;;;;;;;3.95;0.93;;;13.30;99.90;;;;;;4974755;28;25091;-77
2022/11/17 11:36:43;;;;;;;5.82;1.25;;;13.30;99.90;;;;;;4997234;28;25089;-76
2022/11/17 11:39:21;;;;;;;5.57;1.50;;;13.20;99.90;;;;;;4991312;28;25062;-77
2022/11/17 11:42:08;;;;;;;5.50;1.33;;;13.10;99.90;;;;;;5000211;28;25127;-76
2022/11/17 11:44:48;;;;;;;7.32;1.77;;;13.10;99.90;;;;;;5001700;28;25097;-75
2022/11/17 11:47:29;;;;;;;4.03;1.10;;;13.00;99.90;;;;;;5021001;28;25069;-75
2022/11/17 11:50:08;;;;;;;2.38;1.05;;;13.00;99.90;;;;;;4986261;28;25083;-75
2022/11/17 11:52:38;;;;;;;2.00;1.10;;;13.00;99.90;;;;;;4993414;28;25163;-75
2022/11/17 11:55:19;;;;;;;4.85;1.17;;;13.00;99.90;;;;;;4986039;28;25064;-77
2022/11/17 11:57:54;;;;;;;9.60;1.20;;;12.90;99.90;;;;;;4984657;28;25059;-76
2022/11/17 12:00:20;;;;;;;5.40;1.40;;;12.90;99.90;;;;;;5008070;28;25103;-77
2022/11/17 12:03:01;;;;;;;1.85;0.98;;;12.80;99.90;;;;;;4999018;28;25157;-77
2022/11/17 12:05:42;;;;;;;1.95;1.23;;;12.70;99.90;;;;;;4992182;28;25114;-76
2022/11/17 12:08:19;;;;;;;1.35;0.90;;;12.70;99.90;;;;;;4983597;28;25076;-76
2022/11/17 12:11:59;;;;;;;4.07;1.10;;;12.80;99.90;;;;;;4983118;28;25160;-76
2022/11/17 12:13:52;;;;;;;6.93;1.63;;;12.70;99.90;;;;;;4982914;28;25101;-76
2022/11/17 12:16:31;;;;;;;5.50;1.20;;;12.70;99.90;;;;;;4982738;28;25133;-76
2022/11/17 12:18:57;;;;;;;7.70;1.00;;;12.70;99.90;;;;;;4987431;28;25134;-76
2022/11/17 12:21:25;;;;;;;4.53;1.45;;;12.70;99.90;;;;;;4990971;28;25126;-75
2022/11/17 12:24:09;;;;;;;6.53;1.10;;;12.70;99.90;;;;;;5001644;28;25078;-75
2022/11/17 12:26:35;;;;;;;5.88;0.90;;;12.70;99.90;;;;;;4990382;28;25066;-75
2022/11/17 12:29:20;;;;;;;5.35;1.83;;;12.60;99.90;;;;;;4989563;28;25065;-75
2022/11/17 12:31:57;;;;;;;5.00;0.80;;;12.60;99.90;;;;;;4983870;28;25115;-76
2022/11/17 12:34:26;;;;;;;2.05;0.82;;;12.60;99.90;;;;;;4981062;28;25089;-75
2022/11/17 12:37:18;;;;;;;3.67;0.93;;;12.50;99.90;;;;;;4993674;28;25127;-75
2022/11/17 12:40:03;;;;;;;1.98;0.98;;;12.50;99.90;;;;;;4990381;28;25086;-77
2022/11/17 12:42:30;;;;;;;3.95;1.00;;;12.50;99.90;;;;;;4997066;28;25050;-75
2022/11/17 12:44:59;;;;;;;2.08;0.95;;;12.60;99.90;;;;;;4988873;28;25085;-77
2022/11/17 12:47:26;;;;;;;4.35;0.90;;;12.50;99.90;;;;;;4992436;28;25070;-75
2022/11/17 12:50:08;;;;;;;4.93;1.20;;;12.50;99.90;;;;;;4999195;28;25084;-77
2022/11/17 12:52:46;;;;;;;2.72;1.00;;;12.50;99.90;;;;;;4996711;28;25103;-75
2022/11/17 12:55:16;;;;;;;2.35;0.90;;;12.50;99.90;;;;;;4991485;28;25117;-76
2022/11/17 12:57:45;;;;;;;4.18;1.00;;;12.50;99.90;;;;;;5019000;28;25115;-75
2022/11/17 13:00:20;;;;;;;2.20;1.15;;;12.60;99.90;;;;;;4987945;28;25105;-74
2022/11/17 13:02:59;;;;;;;6.07;1.23;;;12.60;99.90;;;;;;4999864;28;25105;-75
2022/11/17 13:05:29;;;;;;;8.85;1.38;;;12.60;99.90;;;;;;4994898;28;25059;-74
2022/11/17 13:08:30;;;;;;;4.80;1.10;;;12.60;99.90;;;;;;4987983;28;25064;-74
2022/11/17 13:11:04;;;;;;;3.83;0.60;;;12.60;99.90;;;;;;4971322;28;25127;-75
2022/11/17 13:13:29;;;;;;;2.63;0.90;;;12.60;99.90;;;;;;4990827;28;25148;-74
2022/11/17 13:15:58;;;;;;;3.53;0.60;;;12.60;99.90;;;;;;5006281;28;25143;-77
2022/11/17 13:18:34;;;;;;;3.28;1.02;;;12.60;99.90;;;;;;4995374;28;25067;-74
2022/11/17 13:21:00;;;;;;;2.78;0.60;;;12.60;99.90;;;;;;4984383;28;25077;-74
2022/11/17 13:23:32;;;;;;;4.45;0.85;;;12.60;99.90;;;;;;4990574;28;25159;-74
2022/11/17 13:26:08;;;;;;;5.50;1.13;;;12.50;99.90;;;;;;5010663;28;25104;-74
2022/11/17 13:28:34;;;;;;;3.90;0.95;;;12.50;99.90;;;;;;4999003;28;25064;-76
2022/11/17 13:31:00;;;;;;;3.03;0.80;;;12.50;99.90;;;;;;4990546;28;25051;-76
2022/11/17 13:33:27;;;;;;;2.83;0.77;;;12.50;99.90;;;;;;4981616;28;25081;-76
2022/11/17 13:36:18;;;;;;;4.25;1.15;;;12.50;99.90;;;;;;4997642;28;25159;-74